createdAt,value
2022-08-30T00:00:39.883Z,100986.06
2022-08-30T00:03:25.805Z,100987.50
2022-08-30T00:06:11.734Z,100985.94
2022-08-30T00:08:57.332Z,100994.25
2022-08-30T00:11:42.522Z,100996.16
2022-08-30T00:14:27.767Z,100994.38
2022-08-30T00:17:13.086Z,100990.56
2022-08-30T00:19:58.947Z,100991.13
2022-08-30T00:22:44.882Z,100983.75
2022-08-30T00:25:30.726Z,100981.59
2022-08-30T00:28:17.011Z,100978.84
2022-08-30T00:31:02.554Z,100977.56
2022-08-30T00:33:47.615Z,100969.13
2022-08-30T00:36:33.138Z,100969.28
2022-08-30T00:39:18.440Z,100968.31
2022-08-30T00:42:04.105Z,100962.50
2022-08-30T00:44:49.817Z,100960.03
2022-08-30T00:47:35.353Z,100951.84
2022-08-30T00:50:22.124Z,100953.81
2022-08-30T00:53:09.266Z,100948.88
2022-08-30T00:55:55.194Z,100948.16
2022-08-30T00:58:44.414Z,100946.47
2022-08-30T01:01:31.847Z,100939.44
2022-08-30T01:04:21.543Z,100940.41
2022-08-30T01:07:08.381Z,100947.69
2022-08-30T01:09:54.062Z,100947.13
2022-08-30T01:12:40.143Z,100949.78
2022-08-30T01:15:25.958Z,100950.38
2022-08-30T01:18:13.395Z,100941.88
2022-08-30T01:20:58.427Z,100950.75
2022-08-30T01:23:44.623Z,100952.56
2022-08-30T01:26:32.128Z,100948.88
2022-08-30T01:29:20.662Z,100952.78
2022-08-30T01:32:06.128Z,100952.56
2022-08-30T01:34:51.402Z,100946.69
2022-08-30T01:37:37.739Z,100947.72
2022-08-30T01:40:23.024Z,100947.00
2022-08-30T01:43:08.269Z,100948.41
2022-08-30T01:45:53.591Z,100955.25
2022-08-30T01:48:39.674Z,100955.13
2022-08-30T01:51:26.325Z,100956.25
2022-08-30T01:54:11.404Z,100957.31
2022-08-30T01:56:56.978Z,100951.69
2022-08-30T01:59:43.771Z,100948.28
2022-08-30T02:02:29.467Z,100952.91
2022-08-30T02:05:14.875Z,100951.47
2022-08-30T02:08:00.637Z,100949.06
2022-08-30T02:10:45.703Z,100948.81
2022-08-30T02:13:31.205Z,100947.41
2022-08-30T02:16:18.704Z,100946.66
2022-08-30T02:19:03.988Z,100950.19
2022-08-30T02:21:49.604Z,100945.44
2022-08-30T02:24:34.838Z,100945.16
2022-08-30T02:27:20.111Z,100939.13
2022-08-30T02:30:06.989Z,100939.81
2022-08-30T02:32:52.751Z,100947.69
2022-08-30T02:35:37.942Z,100942.34
2022-08-30T02:38:23.883Z,100940.25
2022-08-30T02:41:09.342Z,100937.34
2022-08-30T02:43:58.585Z,100934.22
2022-08-30T02:46:43.773Z,100929.47
2022-08-30T02:49:35.967Z,100923.13
2022-08-30T02:52:27.755Z,100929.06
2022-08-30T02:55:13.263Z,100928.00
2022-08-30T02:57:58.798Z,100925.59
2022-08-30T03:00:44.129Z,100928.78
2022-08-30T03:03:29.428Z,100927.41
2022-08-30T03:06:14.767Z,100922.22
2022-08-30T03:09:00.278Z,100922.22
2022-08-30T03:11:45.695Z,100928.69
2022-08-30T03:14:31.522Z,100920.19
2022-08-30T03:17:17.005Z,100916.72
2022-08-30T03:20:02.297Z,100919.13
2022-08-30T03:22:47.867Z,100912.19
2022-08-30T03:25:34.001Z,100911.66
2022-08-30T03:28:19.507Z,100910.09
2022-08-30T03:31:05.744Z,100915.84
2022-08-30T03:33:51.176Z,100915.72
2022-08-30T03:36:38.161Z,100906.84
2022-08-30T03:39:23.800Z,100907.00
2022-08-30T03:42:11.381Z,100906.13
2022-08-30T03:44:57.090Z,100901.91
2022-08-30T03:47:43.112Z,100907.00
2022-08-30T03:50:29.006Z,100905.56
2022-08-30T03:53:14.504Z,100907.53
2022-08-30T03:55:59.764Z,100910.19
2022-08-30T03:58:45.645Z,100917.75
2022-08-30T04:01:31.224Z,100910.97
2022-08-30T04:04:20.703Z,100913.91
2022-08-30T04:07:06.578Z,100912.94
2022-08-30T04:09:51.722Z,100914.75
2022-08-30T04:12:38.562Z,100912.22
2022-08-30T04:15:24.076Z,100915.25
2022-08-30T04:18:10.273Z,100910.78
2022-08-30T04:20:55.972Z,100908.09
2022-08-30T04:23:41.549Z,100904.56
2022-08-30T04:26:29.274Z,100909.19
2022-08-30T04:29:17.729Z,100899.63
2022-08-30T04:32:03.216Z,100903.03
2022-08-30T04:34:48.458Z,100905.94
2022-08-30T04:37:35.152Z,100903.03
2022-08-30T04:40:20.660Z,100901.13
2022-08-30T04:43:05.725Z,100902.28
2022-08-30T04:45:52.398Z,100898.31
2022-08-30T04:48:38.115Z,100899.94
2022-08-30T04:51:23.350Z,100900.22
2022-08-30T04:54:09.030Z,100899.38
2022-08-30T04:56:54.569Z,100895.41
2022-08-30T04:59:40.220Z,100897.91
2022-08-30T05:02:25.474Z,100901.06
2022-08-30T05:05:29.505Z,100895.41
2022-08-30T05:08:15.815Z,100905.41
2022-08-30T05:11:04.823Z,100904.19
2022-08-30T05:13:50.345Z,100902.38
2022-08-30T05:16:36.125Z,100901.09
2022-08-30T05:19:21.375Z,100913.47
2022-08-30T05:22:06.432Z,100916.09
2022-08-30T05:24:51.771Z,100923.97
2022-08-30T05:27:37.600Z,100916.97
2022-08-30T05:30:23.792Z,100915.88
2022-08-30T05:33:09.334Z,100920.72
2022-08-30T05:35:54.418Z,100922.06
2022-08-30T05:38:40.360Z,100931.53
2022-08-30T05:41:27.327Z,100924.63
2022-08-30T05:44:12.456Z,100932.59
2022-08-30T05:46:57.794Z,100934.16
2022-08-30T05:49:43.228Z,100931.47
2022-08-30T05:52:28.277Z,100941.88
2022-08-30T05:55:13.694Z,100942.75
2022-08-30T05:58:00.928Z,100945.59
2022-08-30T06:00:46.449Z,100945.34
2022-08-30T06:03:34.617Z,100950.47
2022-08-30T06:06:20.586Z,100936.13
2022-08-30T06:09:07.254Z,100944.34
2022-08-30T06:11:52.430Z,100946.28
2022-08-30T06:14:39.036Z,100945.66
2022-08-30T06:17:24.551Z,100948.19
2022-08-30T06:20:10.007Z,100948.50
2022-08-30T06:22:55.650Z,100956.16
2022-08-30T06:25:41.242Z,100957.34
2022-08-30T06:28:27.057Z,100959.47
2022-08-30T06:31:13.773Z,100948.69
2022-08-30T06:33:59.090Z,100953.88
2022-08-30T06:36:44.592Z,100950.69
2022-08-30T06:39:29.694Z,100954.09
2022-08-30T06:42:15.005Z,100954.78
2022-08-30T06:45:10.323Z,100961.31
2022-08-30T06:47:56.206Z,100969.88
2022-08-30T06:50:42.232Z,100955.28
2022-08-30T06:53:29.784Z,100965.44
2022-08-30T06:56:16.956Z,100963.22
2022-08-30T06:59:02.377Z,100970.84
2022-08-30T07:01:48.199Z,100975.50
2022-08-30T07:04:33.520Z,100973.38
2022-08-30T07:07:18.674Z,100973.84
2022-08-30T07:10:07.967Z,100973.34
2022-08-30T07:12:52.984Z,100969.34
2022-08-30T07:15:41.197Z,100976.84
2022-08-30T07:18:44.940Z,100979.13
2022-08-30T07:21:33.130Z,100979.28
2022-08-30T07:24:18.727Z,100969.72
2022-08-30T07:27:04.372Z,100982.97
2022-08-30T07:29:50.020Z,100986.63
2022-08-30T07:32:35.554Z,100988.03
2022-08-30T07:35:20.825Z,100992.69
2022-08-30T07:38:06.278Z,100987.50
2022-08-30T07:40:51.614Z,100993.47
2022-08-30T07:43:39.093Z,100992.88
2022-08-30T07:46:24.916Z,100996.13
2022-08-30T07:49:11.601Z,100997.69
2022-08-30T07:51:57.311Z,100998.53
2022-08-30T07:54:43.207Z,100996.59
2022-08-30T07:57:31.669Z,101001.41
2022-08-30T08:00:17.416Z,100998.00
2022-08-30T08:03:07.538Z,100996.22
2022-08-30T08:05:53.433Z,101007.06
2022-08-30T08:08:39.026Z,101005.97
2022-08-30T08:11:26.844Z,101012.00
2022-08-30T08:17:05.159Z,101011.31
2022-08-30T08:19:50.709Z,101009.63
2022-08-30T08:22:39.934Z,101008.94
2022-08-30T08:25:25.418Z,101001.75
2022-08-30T08:28:10.780Z,101000.63
2022-08-30T08:30:56.058Z,100996.97
2022-08-30T08:33:41.361Z,101005.69
2022-08-30T08:36:27.154Z,101009.78
2022-08-30T08:39:12.424Z,101007.28
2022-08-30T08:42:08.445Z,101016.41
2022-08-30T08:44:57.149Z,101014.03
2022-08-30T08:47:57.779Z,101011.50
2022-08-30T08:51:07.185Z,101022.63
2022-08-30T08:54:02.888Z,101016.31
2022-08-30T08:56:49.896Z,101004.75
2022-08-30T08:59:35.108Z,101004.19
2022-08-30T09:02:20.693Z,101004.75
2022-08-30T09:05:06.493Z,101003.63
2022-08-30T09:07:59.625Z,101016.31
2022-08-30T09:10:57.118Z,101015.63
2022-08-30T09:13:42.143Z,101009.84
2022-08-30T09:16:45.877Z,101012.50
2022-08-30T09:19:36.949Z,101014.22
2022-08-30T09:22:26.710Z,101019.41
2022-08-30T09:25:12.434Z,101030.69
2022-08-30T09:28:11.145Z,101027.31
2022-08-30T09:31:06.809Z,101019.69
2022-08-30T09:33:55.242Z,101013.19
2022-08-30T09:36:43.920Z,101013.63
2022-08-30T09:39:34.694Z,101020.97
2022-08-30T09:42:23.852Z,101009.53
2022-08-30T09:45:18.927Z,101003.34
2022-08-30T09:48:22.984Z,101002.19
2022-08-30T09:51:08.298Z,100996.13
2022-08-30T09:54:18.328Z,100992.72
2022-08-30T09:57:33.872Z,100990.19
2022-08-30T10:00:21.531Z,100985.91
2022-08-30T10:03:36.321Z,100977.50
2022-08-30T10:06:44.690Z,100977.78
2022-08-30T10:09:36.539Z,100976.03
2022-08-30T10:12:21.689Z,100979.06
2022-08-30T10:15:22.335Z,100971.44
2022-08-30T10:18:10.379Z,100962.09
2022-08-30T10:21:07.181Z,100959.81
2022-08-30T10:24:02.989Z,100962.31
2022-08-30T10:26:58.531Z,100956.91
2022-08-30T10:29:51.757Z,100958.09
2022-08-30T10:32:51.621Z,100946.84
2022-08-30T10:35:39.992Z,100953.31
2022-08-30T10:38:33.794Z,100953.31
2022-08-30T10:41:36.479Z,100944.81
2022-08-30T10:44:25.121Z,100941.31
2022-08-30T10:47:25.375Z,100941.31
2022-08-30T10:50:10.888Z,100938.41
2022-08-30T10:53:03.533Z,100934.03
2022-08-30T10:55:51.866Z,100938.72
2022-08-30T10:58:38.519Z,100930.91
2022-08-30T11:01:31.219Z,100935.25
2022-08-30T11:04:35.734Z,100926.16
2022-08-30T11:07:24.677Z,100926.59
2022-08-30T11:10:22.452Z,100926.22
2022-08-30T11:13:13.046Z,100932.19
2022-08-30T11:16:01.230Z,100940.31
2022-08-30T11:18:52.088Z,100936.31
2022-08-30T11:21:39.191Z,100939.00
2022-08-30T11:24:25.474Z,100936.56
2022-08-30T11:27:32.296Z,100940.63
2022-08-30T11:30:27.507Z,100932.81
2022-08-30T11:33:13.109Z,100941.00
2022-08-30T11:35:59.428Z,100933.97
2022-08-30T11:38:44.832Z,100943.19
2022-08-30T11:41:31.373Z,100934.97
2022-08-30T11:44:23.043Z,100929.06
2022-08-30T11:47:27.134Z,100935.53
2022-08-30T11:50:19.138Z,100938.50
2022-08-30T11:53:04.461Z,100928.22
2022-08-30T11:55:53.556Z,100924.38
2022-08-30T11:58:55.383Z,100922.16
2022-08-30T12:01:50.103Z,100921.25
2022-08-30T12:04:42.776Z,100915.69
2022-08-30T12:07:47.499Z,100925.75
2022-08-30T12:10:41.964Z,100923.00
2022-08-30T12:13:39.474Z,100913.78
2022-08-30T12:16:35.105Z,100920.44
2022-08-30T12:19:21.537Z,100912.03
2022-08-30T12:22:07.308Z,100908.66
2022-08-30T12:24:53.883Z,100906.69
2022-08-30T12:27:40.204Z,100908.75
2022-08-30T12:30:28.246Z,100908.34
2022-08-30T12:33:23.404Z,100902.22
2022-08-30T12:36:31.471Z,100904.03
2022-08-30T12:39:18.686Z,100895.56
2022-08-30T12:42:12.314Z,100900.56
2022-08-30T12:45:06.460Z,100899.22
2022-08-30T12:48:00.496Z,100892.66
2022-08-30T12:50:53.623Z,100890.97
2022-08-30T12:53:42.735Z,100883.13
2022-08-30T12:56:51.668Z,100880.78
2022-08-30T12:59:41.595Z,100875.41
2022-08-30T13:02:41.870Z,100879.66
2022-08-30T13:05:45.530Z,100874.59
2022-08-30T13:08:38.397Z,100866.06
2022-08-30T13:11:29.328Z,100871.16
2022-08-30T13:14:33.798Z,100872.31
2022-08-30T13:17:20.395Z,100875.72
2022-08-30T13:20:26.620Z,100866.09
2022-08-30T13:23:11.988Z,100858.75
2022-08-30T13:25:57.314Z,100860.06
2022-08-30T13:28:43.863Z,100846.84
2022-08-30T13:31:36.386Z,100851.72
2022-08-30T13:34:25.147Z,100841.56
2022-08-30T13:40:21.405Z,100843.34
2022-08-30T13:43:06.767Z,100838.25
2022-08-30T13:45:52.158Z,100828.94
2022-08-30T13:48:37.381Z,100833.06
2022-08-30T13:51:22.608Z,100833.19
2022-08-30T13:54:10.341Z,100826.84
2022-08-30T13:56:56.221Z,100807.75
2022-08-30T13:59:41.491Z,100812.91
2022-08-30T14:02:42.247Z,100801.16
2022-08-30T14:05:50.211Z,100802.59
2022-08-30T14:08:48.543Z,100809.69
2022-08-30T14:11:36.671Z,100793.97
2022-08-30T14:14:36.455Z,100791.94
2022-08-30T14:17:30.420Z,100779.34
2022-08-30T14:20:17.747Z,100769.69
2022-08-30T14:23:03.880Z,100766.59
2022-08-30T14:25:55.963Z,100770.44
2022-08-30T14:28:42.196Z,100760.59
2022-08-30T14:31:30.076Z,100765.63
2022-08-30T14:34:18.398Z,100753.50
2022-08-30T14:37:07.342Z,100749.69
2022-08-30T14:39:54.509Z,100751.03
2022-08-30T14:42:40.005Z,100749.16
2022-08-30T14:45:25.956Z,100740.44
2022-08-30T14:48:12.397Z,100734.91
2022-08-30T14:51:00.750Z,100728.69
2022-08-30T14:53:47.117Z,100722.16
2022-08-30T14:56:32.572Z,100721.53
2022-08-30T14:59:18.574Z,100711.88
2022-08-30T15:02:03.936Z,100714.75
2022-08-30T15:04:49.456Z,100713.25
2022-08-30T15:07:35.111Z,100716.59
2022-08-30T15:10:21.335Z,100700.97
2022-08-30T15:13:06.927Z,100709.91
2022-08-30T15:15:52.102Z,100708.53
2022-08-30T15:18:38.654Z,100707.91
2022-08-30T15:21:37.710Z,100712.78
2022-08-30T15:24:27.636Z,100710.06
2022-08-30T15:27:15.368Z,100708.56
2022-08-30T15:30:01.187Z,100709.75
2022-08-30T15:32:46.280Z,100701.66
2022-08-30T15:35:31.521Z,100700.19
2022-08-30T15:38:18.278Z,100693.09
2022-08-30T15:41:08.213Z,100695.09
2022-08-30T15:43:55.091Z,100697.59
2022-08-30T15:46:41.733Z,100694.56
2022-08-30T15:49:28.538Z,100699.41
2022-08-30T15:52:13.853Z,100691.66
2022-08-30T15:54:59.461Z,100683.03
2022-08-30T15:57:44.775Z,100678.84
2022-08-30T16:00:30.386Z,100680.19
2022-08-30T16:03:15.804Z,100671.25
2022-08-30T16:06:00.798Z,100675.47
2022-08-30T16:08:47.144Z,100685.66
2022-08-30T16:11:32.737Z,100693.75
2022-08-30T16:14:18.133Z,100689.03
2022-08-30T16:17:03.839Z,100683.28
2022-08-30T16:19:50.787Z,100677.06
2022-08-30T16:22:36.357Z,100679.91
2022-08-30T16:25:21.428Z,100674.66
2022-08-30T16:28:09.493Z,100676.13
2022-08-30T16:30:55.177Z,100667.06
2022-08-30T16:33:43.822Z,100672.69
2022-08-30T16:36:30.756Z,100657.88
2022-08-30T16:39:16.624Z,100663.91
2022-08-30T16:42:03.445Z,100662.44
2022-08-30T16:44:51.716Z,100662.22
2022-08-30T16:47:38.137Z,100669.09
2022-08-30T16:50:23.758Z,100661.53
2022-08-30T16:53:09.746Z,100655.78
2022-08-30T16:55:55.472Z,100646.34
2022-08-30T16:58:41.358Z,100653.72
2022-08-30T17:01:28.163Z,100649.19
2022-08-30T17:04:13.922Z,100650.19
2022-08-30T17:07:05.892Z,100654.53
2022-08-30T17:09:51.071Z,100653.41
2022-08-30T17:12:36.246Z,100656.19
2022-08-30T17:15:21.357Z,100657.72
2022-08-30T17:18:06.862Z,100648.69
2022-08-30T17:20:52.095Z,100649.81
2022-08-30T17:23:37.882Z,100657.66
2022-08-30T17:26:23.600Z,100647.25
2022-08-30T17:29:11.376Z,100653.75
2022-08-30T17:31:59.320Z,100649.94
2022-08-30T17:34:44.640Z,100645.56
2022-08-30T17:37:30.235Z,100649.53
2022-08-30T17:40:16.313Z,100646.84
2022-08-30T17:43:01.479Z,100647.69
2022-08-30T17:45:47.422Z,100649.53
2022-08-30T17:48:32.704Z,100647.69
2022-08-30T17:51:17.999Z,100655.91
2022-08-30T17:54:03.409Z,100648.00
2022-08-30T17:56:49.563Z,100654.53
2022-08-30T17:59:37.423Z,100656.91
2022-08-30T18:02:29.693Z,100670.63
2022-08-30T18:05:15.231Z,100671.59
2022-08-30T18:08:00.545Z,100673.59
2022-08-30T18:10:45.776Z,100673.56
2022-08-30T18:13:31.430Z,100675.06
2022-08-30T18:16:21.455Z,100672.22
2022-08-30T18:19:09.548Z,100675.38
2022-08-30T18:21:55.369Z,100678.91
2022-08-30T18:24:40.538Z,100680.88
2022-08-30T18:27:25.741Z,100680.88
2022-08-30T18:30:11.846Z,100684.03
2022-08-30T18:32:56.963Z,100692.22
2022-08-30T18:35:47.514Z,100686.75
2022-08-30T18:38:34.541Z,100700.16
2022-08-30T18:41:20.166Z,100701.13
2022-08-30T18:44:26.258Z,100702.84
2022-08-30T18:47:11.396Z,100710.88
2022-08-30T18:49:57.051Z,100704.28
2022-08-30T18:52:45.058Z,100701.31
2022-08-30T18:55:30.321Z,100696.94
2022-08-30T18:58:16.029Z,100702.47
2022-08-30T19:01:03.541Z,100710.31
2022-08-30T19:03:48.954Z,100720.91
2022-08-30T19:06:34.706Z,100716.53
2022-08-30T19:09:23.417Z,100734.44
2022-08-30T19:12:09.745Z,100743.38
2022-08-30T19:14:56.634Z,100747.22
2022-08-30T19:17:43.824Z,100746.75
2022-08-30T19:20:29.365Z,100759.84
2022-08-30T19:23:15.088Z,100767.22
2022-08-30T19:26:00.604Z,100773.03
2022-08-30T19:28:46.953Z,100781.81
2022-08-30T19:31:32.252Z,100788.94
2022-08-30T19:34:17.686Z,100786.13
2022-08-30T19:37:02.976Z,100798.38
2022-08-30T19:39:48.925Z,100799.38
2022-08-30T19:42:34.986Z,100809.09
2022-08-30T19:45:24.029Z,100824.16
2022-08-30T19:48:09.232Z,100836.59
2022-08-30T19:50:56.770Z,100847.16
2022-08-30T19:53:42.352Z,100845.31
2022-08-30T19:56:27.641Z,100851.81
2022-08-30T19:59:13.082Z,100863.25
2022-08-30T20:01:58.504Z,100869.41
2022-08-30T20:04:43.792Z,100876.47
2022-08-30T20:07:31.210Z,100878.31
2022-08-30T20:10:19.898Z,100886.25
2022-08-30T20:13:05.667Z,100877.63
2022-08-30T20:15:55.849Z,100880.22
2022-08-30T20:18:42.727Z,100879.91
2022-08-30T20:21:27.875Z,100884.97
2022-08-30T20:24:16.328Z,100889.03
2022-08-30T20:27:03.634Z,100894.97
2022-08-30T20:29:49.328Z,100898.13
2022-08-30T20:32:37.220Z,100907.22
2022-08-30T20:35:23.833Z,100912.75
2022-08-30T20:38:09.351Z,100912.47
2022-08-30T20:40:56.847Z,100910.38
2022-08-30T20:43:42.389Z,100912.06
2022-08-30T20:46:33.389Z,100910.38
2022-08-30T20:49:20.421Z,100915.19
2022-08-30T20:52:06.226Z,100918.56
2022-08-30T20:54:54.923Z,100916.31
2022-08-30T20:57:40.578Z,100912.38
2022-08-30T21:00:26.572Z,100912.94
2022-08-30T21:03:27.324Z,100910.53
2022-08-30T21:06:13.252Z,100917.09
2022-08-30T21:08:58.783Z,100923.44
2022-08-30T21:11:44.722Z,100922.31
2022-08-30T21:14:29.910Z,100920.34
2022-08-30T21:17:15.153Z,100920.19
2022-08-30T21:20:00.620Z,100915.09
2022-08-30T21:22:45.730Z,100921.31
2022-08-30T21:25:33.340Z,100933.44
2022-08-30T21:28:18.847Z,100923.16
2022-08-30T21:31:12.013Z,100923.00
2022-08-30T21:33:57.514Z,100924.00
2022-08-30T21:36:45.649Z,100916.81
2022-08-30T21:39:31.242Z,100917.53
2022-08-30T21:42:16.821Z,100918.63
2022-08-30T21:45:02.337Z,100919.66
2022-08-30T21:47:47.506Z,100921.19
2022-08-30T21:50:32.944Z,100920.06
2022-08-30T21:53:18.617Z,100927.97
2022-08-30T21:56:21.273Z,100934.69
2022-08-30T21:59:07.796Z,100944.72
2022-08-30T22:01:53.059Z,100953.03
2022-08-30T22:04:40.289Z,100944.03
2022-08-30T22:07:25.236Z,100945.97
2022-08-30T22:10:12.194Z,100950.75
2022-08-30T22:12:57.470Z,100965.00
2022-08-30T22:15:42.720Z,100961.50
2022-08-30T22:18:28.117Z,100952.47
2022-08-30T22:21:14.838Z,100943.16
2022-08-30T22:24:00.401Z,100940.63
2022-08-30T22:26:46.427Z,100939.38
2022-08-30T22:29:31.631Z,100942.03
2022-08-30T22:32:16.904Z,100936.41
2022-08-30T22:35:02.262Z,100933.03
2022-08-30T22:37:52.956Z,100931.03
2022-08-30T22:40:43.908Z,100930.50
2022-08-30T22:43:29.355Z,100925.16
2022-08-30T22:46:15.563Z,100922.03
2022-08-30T22:49:02.445Z,100918.94
2022-08-30T22:51:47.961Z,100919.06
2022-08-30T22:54:33.987Z,100913.03
2022-08-30T22:57:19.991Z,100903.44
2022-08-30T23:00:11.406Z,100890.78
2022-08-30T23:02:56.901Z,100871.75
2022-08-30T23:05:42.521Z,100863.63
2022-08-30T23:08:28.115Z,100854.00
2022-08-30T23:11:14.180Z,100847.97
2022-08-30T23:13:59.386Z,100844.31
2022-08-30T23:16:45.292Z,100843.75
2022-08-30T23:19:30.643Z,100845.84
2022-08-30T23:22:16.099Z,100842.78
2022-08-30T23:25:19.952Z,100856.28
2022-08-30T23:28:24.161Z,100852.19
2022-08-30T23:31:28.979Z,100838.53
2022-08-30T23:34:33.019Z,100847.41
2022-08-30T23:37:37.271Z,100841.59
2022-08-30T23:40:42.047Z,100843.00
2022-08-30T23:43:46.317Z,100851.03
2022-08-30T23:46:50.158Z,100833.72
2022-08-30T23:49:54.416Z,100820.34
2022-08-30T23:52:58.603Z,100807.09
2022-08-30T23:56:02.775Z,100796.13
2022-08-30T23:59:06.913Z,100795.72
